Time;durP1;ratioP1;P1;durP2;ratioP2;P2;SDS_P1;SDS_P2;PMS_P1;PMS_P2;Temp;Humidity;BMP_temperature;BMP_pressure;BME280_temperature;BME280_humidity;BME280_pressure;Samples;Min_cycle;Max_cycle;Signal;HPM_P1;HPM_P2
2022/07/15 00:00:18;;;;;;;9.60;2.75;;;17.00;99.90;;;;;;4971111;28;20476;-84
2022/07/15 00:02:44;;;;;;;7.50;2.90;;;17.10;99.90;;;;;;4972218;28;20411;-84
2022/07/15 00:05:10;;;;;;;8.20;2.88;;;17.00;99.90;;;;;;4971993;28;20053;-84
2022/07/15 00:07:36;;;;;;;5.90;2.75;;;16.90;99.90;;;;;;4971009;28;20042;-84
2022/07/15 00:10:15;;;;;;;6.88;2.75;;;16.80;99.90;;;;;;4971186;28;20110;-86
2022/07/15 00:12:47;;;;;;;9.63;3.00;;;16.80;99.90;;;;;;4972113;28;20517;-84
2022/07/15 00:15:13;;;;;;;7.97;3.13;;;16.70;99.90;;;;;;4972264;28;20170;-85
2022/07/15 00:17:40;;;;;;;14.93;3.22;;;16.80;99.90;;;;;;4972273;28;20030;-85
2022/07/15 00:20:06;;;;;;;10.48;3.25;;;16.60;99.90;;;;;;4974618;28;20033;-84
2022/07/15 00:22:32;;;;;;;10.45;3.47;;;16.60;99.90;;;;;;4974953;28;20070;-84
2022/07/15 00:24:58;;;;;;;9.07;3.35;;;16.50;99.90;;;;;;4972539;28;20023;-84
2022/07/15 00:27:24;;;;;;;9.20;3.38;;;16.60;99.90;;;;;;4970768;28;20069;-84
2022/07/15 00:29:50;;;;;;;10.02;3.75;;;16.60;99.90;;;;;;4970727;28;20106;-84
2022/07/15 00:32:16;;;;;;;9.10;3.47;;;16.50;99.90;;;;;;4985585;28;20031;-84
2022/07/15 00:34:42;;;;;;;10.88;3.60;;;16.60;99.90;;;;;;4971512;28;20140;-85
2022/07/15 00:37:08;;;;;;;13.98;3.85;;;16.50;99.90;;;;;;4970437;28;20042;-84
2022/07/15 00:39:34;;;;;;;9.90;3.47;;;16.50;99.90;;;;;;4985513;28;20403;-84
2022/07/15 00:42:00;;;;;;;12.20;3.42;;;16.40;99.90;;;;;;4970374;28;20486;-84
2022/07/15 00:44:26;;;;;;;11.07;3.42;;;16.40;99.90;;;;;;4970146;28;20019;-83
2022/07/15 00:46:52;;;;;;;10.57;3.80;;;16.40;99.90;;;;;;4970675;28;20037;-84
2022/07/15 00:49:18;;;;;;;13.40;3.70;;;16.40;99.90;;;;;;4970322;28;20018;-84
2022/07/15 00:51:47;;;;;;;14.95;3.80;;;16.40;99.90;;;;;;4971146;28;20027;-85
2022/07/15 00:54:15;;;;;;;14.55;3.90;;;16.30;99.90;;;;;;4971615;28;20109;-92
2022/07/15 00:56:41;;;;;;;;;;;;;;;;;;4971798;28;20019;-93
2022/07/15 00:59:08;;;;;;;15.48;4.00;;;16.20;99.90;;;;;;4970453;28;19912;-92
2022/07/15 01:01:37;;;;;;;12.02;3.55;;;16.20;99.90;;;;;;4970093;28;20034;-84
2022/07/15 01:04:04;;;;;;;9.68;3.38;;;16.20;99.90;;;;;;4970237;28;20053;-84
2022/07/15 01:06:30;;;;;;;12.48;3.70;;;16.20;99.90;;;;;;4970037;28;20033;-84
2022/07/15 01:08:56;;;;;;;12.90;4.28;;;16.10;99.90;;;;;;4970126;28;20023;-84
2022/07/15 01:11:22;;;;;;;9.45;3.50;;;16.10;99.90;;;;;;4969918;28;20093;-84
2022/07/15 01:13:47;;;;;;;9.85;3.50;;;16.20;99.90;;;;;;4970138;28;20022;-84
2022/07/15 01:16:13;;;;;;;8.55;3.50;;;16.10;99.90;;;;;;4970785;28;20070;-84
2022/07/15 01:18:38;;;;;;;12.13;3.58;;;16.00;99.90;;;;;;4970032;28;20023;-84
2022/07/15 01:21:04;;;;;;;10.57;4.20;;;16.10;99.90;;;;;;4969858;28;20263;-84
2022/07/15 01:23:30;;;;;;;9.23;3.75;;;16.10;99.90;;;;;;4969615;28;20042;-84
2022/07/15 01:25:56;;;;;;;9.93;3.70;;;16.10;99.90;;;;;;4969820;28;20062;-84
2022/07/15 01:28:22;;;;;;;11.32;3.63;;;16.10;99.90;;;;;;4969716;28;20031;-84
2022/07/15 01:30:47;;;;;;;11.02;4.05;;;16.20;99.90;;;;;;4969011;28;20022;-84
2022/07/15 01:33:13;;;;;;;11.57;3.50;;;16.20;99.90;;;;;;4970616;28;20606;-84
2022/07/15 01:35:39;;;;;;;7.53;3.40;;;16.20;99.90;;;;;;4969505;28;20527;-84
2022/07/15 01:38:05;;;;;;;9.75;3.97;;;16.20;99.90;;;;;;4969683;28;20122;-84
2022/07/15 01:40:30;;;;;;;15.25;4.25;;;16.20;99.90;;;;;;4967992;28;20031;-84
2022/07/15 01:42:56;;;;;;;13.98;4.13;;;16.20;99.90;;;;;;4969806;28;20031;-84
2022/07/15 01:45:22;;;;;;;13.82;4.38;;;16.30;99.90;;;;;;4968239;28;20031;-84
2022/07/15 01:47:49;;;;;;;6.50;3.53;;;16.30;99.90;;;;;;4969611;28;20022;-84
2022/07/15 01:50:15;;;;;;;9.80;3.90;;;16.30;99.90;;;;;;4969616;28;20490;-84
2022/07/15 01:52:41;;;;;;;9.30;4.05;;;16.30;99.90;;;;;;4970468;28;20030;-84
2022/07/15 01:55:09;;;;;;;15.20;4.18;;;16.20;99.90;;;;;;4969687;28;20023;-85
2022/07/15 01:57:34;;;;;;;13.60;3.50;;;16.10;99.90;;;;;;4969597;28;20271;-84
2022/07/15 02:00:00;;;;;;;16.73;4.95;;;16.10;99.90;;;;;;4969798;28;20094;-84
2022/07/15 02:02:26;;;;;;;9.10;4.05;;;16.10;99.90;;;;;;4967956;28;20070;-92
2022/07/15 02:04:52;;;;;;;13.32;4.15;;;16.10;99.90;;;;;;4969522;28;20094;-85
2022/07/15 02:07:18;;;;;;;9.25;4.07;;;16.00;99.90;;;;;;4969357;28;20063;-94
2022/07/15 02:09:43;;;;;;;15.75;4.60;;;16.10;99.90;;;;;;4970198;28;20450;-84
2022/07/15 02:12:09;;;;;;;10.30;3.78;;;16.10;99.90;;;;;;4968341;28;20037;-85
2022/07/15 02:14:35;;;;;;;13.85;4.63;;;16.10;99.90;;;;;;4969440;28;20035;-85
2022/07/15 02:17:02;;;;;;;13.52;4.00;;;16.10;99.90;;;;;;4969457;28;20031;-84
2022/07/15 02:19:28;;;;;;;12.05;4.60;;;16.10;99.90;;;;;;4968041;28;20022;-84
2022/07/15 02:21:54;;;;;;;10.05;3.92;;;16.10;99.90;;;;;;4969306;28;20042;-84
2022/07/15 02:24:19;;;;;;;14.57;4.25;;;16.10;99.90;;;;;;4983969;28;20034;-84
2022/07/15 02:26:46;;;;;;;13.02;4.95;;;16.00;99.90;;;;;;4969354;28;20106;-84
2022/07/15 02:29:12;;;;;;;12.90;4.85;;;16.00;99.90;;;;;;4968824;28;20541;-85
2022/07/15 02:31:38;;;;;;;10.68;4.40;;;15.90;99.90;;;;;;4969314;28;20030;-84
2022/07/15 02:34:04;;;;;;;13.73;4.35;;;16.00;99.90;;;;;;4969449;28;20026;-84
2022/07/15 02:36:30;;;;;;;10.85;4.00;;;16.00;99.90;;;;;;4968923;28;20074;-84
2022/07/15 02:38:56;;;;;;;11.95;4.20;;;15.90;99.90;;;;;;4968092;28;20122;-84
2022/07/15 02:41:21;;;;;;;9.93;3.97;;;15.80;99.90;;;;;;4969278;28;20117;-84
2022/07/15 02:43:48;;;;;;;9.23;4.18;;;15.80;99.90;;;;;;4972637;28;20503;-84
2022/07/15 02:46:14;;;;;;;14.23;4.38;;;15.80;99.90;;;;;;4973500;28;20054;-84
2022/07/15 02:48:40;;;;;;;6.88;3.50;;;15.70;99.90;;;;;;4971700;28;20033;-84
2022/07/15 02:51:06;;;;;;;12.93;4.28;;;15.70;99.90;;;;;;4972569;28;20050;-84
2022/07/15 02:53:32;;;;;;;14.75;4.47;;;15.60;99.90;;;;;;4972242;28;20038;-84
2022/07/15 02:55:58;;;;;;;17.85;4.72;;;15.70;99.90;;;;;;4972433;28;20481;-85
2022/07/15 02:58:24;;;;;;;11.00;4.32;;;15.70;99.90;;;;;;4972293;28;20549;-84
2022/07/15 03:00:50;;;;;;;12.50;4.07;;;15.60;99.90;;;;;;4973202;28;20030;-84
2022/07/15 03:03:16;;;;;;;11.50;4.22;;;15.70;99.90;;;;;;4974685;28;20043;-84
2022/07/15 03:05:42;;;;;;;12.48;4.15;;;15.70;99.90;;;;;;4973865;28;20066;-85
2022/07/15 03:08:07;;;;;;;12.93;4.30;;;15.60;99.90;;;;;;4972844;28;20030;-84
2022/07/15 03:10:33;;;;;;;8.70;3.97;;;15.50;99.90;;;;;;4973533;28;20034;-83
2022/07/15 03:12:59;;;;;;;11.23;4.03;;;15.50;99.90;;;;;;4972202;28;20035;-83
2022/07/15 03:15:25;;;;;;;9.50;3.97;;;15.50;99.90;;;;;;4970793;28;20042;-92
2022/07/15 03:17:51;;;;;;;14.85;4.25;;;15.40;99.90;;;;;;4972615;28;20070;-93
2022/07/15 03:20:17;;;;;;;12.40;4.57;;;15.40;99.90;;;;;;4972436;28;20050;-82
2022/07/15 03:22:42;;;;;;;12.95;4.80;;;15.40;99.90;;;;;;4973591;28;20038;-84
2022/07/15 03:25:08;;;;;;;9.63;4.20;;;15.40;99.90;;;;;;4972382;28;20027;-83
2022/07/15 03:27:34;;;;;;;12.43;4.45;;;15.40;99.90;;;;;;4972321;28;20503;-84
2022/07/15 03:30:00;;;;;;;12.20;5.00;;;15.30;99.90;;;;;;4972127;28;20053;-92
2022/07/15 03:32:26;;;;;;;8.27;4.03;;;15.30;99.90;;;;;;4973635;28;20412;-83
2022/07/15 03:34:52;;;;;;;9.57;4.43;;;15.30;99.90;;;;;;4974600;28;20041;-83
2022/07/15 03:37:18;;;;;;;10.18;3.90;;;15.30;99.90;;;;;;4972585;28;20027;-83
2022/07/15 03:39:44;;;;;;;11.40;4.63;;;15.20;99.90;;;;;;4973751;28;20086;-83
2022/07/15 03:42:10;;;;;;;8.50;3.88;;;15.30;99.90;;;;;;4974619;28;20074;-85
2022/07/15 03:44:35;;;;;;;8.52;4.38;;;15.10;99.90;;;;;;4975036;28;20050;-83
2022/07/15 03:47:01;;;;;;;10.10;4.10;;;15.20;99.90;;;;;;4977293;28;20038;-85
2022/07/15 03:49:27;;;;;;;11.38;4.13;;;15.20;99.90;;;;;;4973125;28;20023;-85
2022/07/15 03:51:53;;;;;;;10.50;4.30;;;15.20;99.90;;;;;;4972031;28;20023;-87
2022/07/15 03:54:19;;;;;;;13.52;4.45;;;15.20;99.90;;;;;;4971221;28;20395;-86
2022/07/15 03:56:47;;;;;;;12.30;4.15;;;15.20;99.90;;;;;;4971326;28;20493;-88
2022/07/15 03:59:14;;;;;;;13.98;4.13;;;15.20;99.90;;;;;;4972683;28;20026;-88
2022/07/15 04:01:40;;;;;;;11.05;4.15;;;15.20;99.90;;;;;;4970419;28;20071;-86
2022/07/15 04:04:06;;;;;;;7.35;4.05;;;15.10;99.90;;;;;;4970525;28;20054;-87
2022/07/15 04:06:32;;;;;;;13.68;4.60;;;15.10;99.90;;;;;;4970459;28;20027;-87
2022/07/15 04:08:58;;;;;;;10.75;4.38;;;15.10;99.90;;;;;;4986562;28;20029;-87
2022/07/15 04:11:24;;;;;;;10.82;3.90;;;15.10;99.90;;;;;;4971800;28;20390;-87
2022/07/15 04:13:50;;;;;;;11.57;4.63;;;15.10;99.90;;;;;;4971684;28;20022;-88
2022/07/15 04:16:16;;;;;;;8.85;4.50;;;15.20;99.90;;;;;;4972354;28;20037;-87
2022/07/15 04:18:41;;;;;;;12.82;4.45;;;15.20;99.90;;;;;;4971466;28;20023;-87
2022/07/15 04:21:07;;;;;;;12.98;4.68;;;15.20;99.90;;;;;;4970030;28;20045;-88
2022/07/15 04:23:33;;;;;;;10.45;4.28;;;15.20;99.90;;;;;;4970055;28;20023;-87
2022/07/15 04:25:59;;;;;;;14.82;5.32;;;15.20;99.90;;;;;;4971425;28;20034;-87
2022/07/15 04:28:26;;;;;;;12.32;4.78;;;15.20;99.90;;;;;;4971423;28;20019;-87
2022/07/15 04:30:52;;;;;;;8.98;4.70;;;15.20;99.90;;;;;;4971293;28;20038;-87
2022/07/15 04:33:19;;;;;;;10.25;4.38;;;15.30;99.90;;;;;;4972006;28;20026;-87
2022/07/15 04:35:45;;;;;;;11.68;4.82;;;15.30;99.90;;;;;;4971955;28;20111;-87
2022/07/15 04:38:11;;;;;;;9.25;4.85;;;15.30;99.90;;;;;;4969654;28;20471;-86
2022/07/15 04:40:37;;;;;;;9.27;4.80;;;15.30;99.90;;;;;;4971039;28;20522;-88
2022/07/15 04:43:03;;;;;;;13.07;5.10;;;15.30;99.90;;;;;;4985963;28;20404;-87
2022/07/15 04:45:29;;;;;;;7.75;4.30;;;15.30;99.90;;;;;;4971067;28;20557;-88
2022/07/15 04:47:55;;;;;;;11.45;4.78;;;15.20;99.90;;;;;;4970966;28;20061;-88
2022/07/15 04:53:05;;;;;;;8.30;4.13;;;15.20;99.90;;;;;;4970819;28;20122;-88
2022/07/15 04:55:31;;;;;;;9.20;4.47;;;15.30;99.90;;;;;;4970874;28;20027;-87
2022/07/15 04:57:57;;;;;;;11.77;4.95;;;15.40;99.90;;;;;;4970984;28;20030;-88
2022/07/15 05:00:23;;;;;;;11.85;4.50;;;15.40;99.90;;;;;;4969509;28;20027;-87
2022/07/15 05:02:49;;;;;;;11.55;4.20;;;15.40;99.90;;;;;;4970342;28;20506;-87
2022/07/15 05:05:15;;;;;;;9.43;3.95;;;15.40;99.90;;;;;;4970546;28;20069;-88
2022/07/15 05:07:41;;;;;;;10.48;4.40;;;15.50;99.90;;;;;;4970702;28;20676;-88
2022/07/15 05:10:07;;;;;;;10.50;3.83;;;15.50;99.90;;;;;;4970781;28;20015;-88
2022/07/15 05:12:33;;;;;;;9.73;3.72;;;15.60;99.90;;;;;;4970710;28;20606;-87
2022/07/15 05:14:58;;;;;;;11.70;4.05;;;15.60;99.90;;;;;;4970592;28;20102;-88
2022/07/15 05:17:25;;;;;;;6.63;3.70;;;15.70;99.90;;;;;;4985548;28;20117;-88
2022/07/15 05:19:52;;;;;;;8.98;4.32;;;15.70;99.90;;;;;;4986317;28;20184;-87
2022/07/15 05:22:18;;;;;;;8.13;3.70;;;15.80;99.90;;;;;;4971250;28;20398;-88
2022/07/15 05:24:44;;;;;;;10.73;4.55;;;15.90;99.90;;;;;;4969207;28;20026;-87
2022/07/15 05:27:10;;;;;;;10.88;4.10;;;15.80;99.90;;;;;;4970459;28;20035;-88
2022/07/15 05:29:35;;;;;;;9.65;3.70;;;15.80;99.90;;;;;;4970382;28;20388;-87
2022/07/15 05:32:01;;;;;;;11.63;3.72;;;15.90;99.90;;;;;;4970336;28;20383;-87
2022/07/15 05:34:27;;;;;;;12.32;4.13;;;15.90;99.90;;;;;;4985205;28;20070;-87
2022/07/15 05:36:53;;;;;;;7.90;3.35;;;15.90;99.90;;;;;;4970524;28;20050;-88
2022/07/15 05:39:18;;;;;;;6.05;3.25;;;16.00;99.90;;;;;;4969848;28;20026;-88
2022/07/15 05:41:44;;;;;;;11.93;3.65;;;16.00;99.90;;;;;;4970200;28;20049;-87
2022/07/15 05:44:09;;;;;;;9.27;3.63;;;16.00;99.90;;;;;;4970309;28;20026;-88
2022/07/15 05:46:36;;;;;;;12.80;3.90;;;16.00;99.90;;;;;;4974505;28;20035;-86
2022/07/15 05:49:01;;;;;;;10.13;3.80;;;16.10;99.90;;;;;;4975939;28;20133;-87
2022/07/15 05:51:28;;;;;;;7.70;3.50;;;16.20;99.90;;;;;;4971846;28;20494;-88
2022/07/15 05:53:54;;;;;;;10.60;3.70;;;16.20;99.90;;;;;;4970650;28;20053;-88
2022/07/15 05:56:20;;;;;;;7.63;3.30;;;16.20;99.90;;;;;;4969936;28;20462;-88
2022/07/15 05:58:45;;;;;;;7.65;3.53;;;16.20;99.90;;;;;;4970236;28;20574;-88
2022/07/15 06:01:11;;;;;;;7.95;3.38;;;16.30;99.90;;;;;;4970145;28;20062;-88
2022/07/15 06:03:37;;;;;;;14.55;3.70;;;16.30;99.90;;;;;;4968790;28;20027;-88
2022/07/15 06:06:05;;;;;;;7.57;3.38;;;16.30;99.90;;;;;;4970143;28;20475;-88
2022/07/15 06:08:31;;;;;;;5.47;3.10;;;16.40;99.90;;;;;;4970182;28;20015;-89
2022/07/15 06:10:57;;;;;;;10.32;3.78;;;16.50;99.90;;;;;;4970293;28;20034;-88
2022/07/15 06:13:23;;;;;;;9.98;3.10;;;16.60;99.90;;;;;;4970955;28;20030;-89
2022/07/15 06:15:48;;;;;;;15.30;3.17;;;16.60;99.90;;;;;;4985088;28;20077;-88
2022/07/15 06:18:14;;;;;;;13.00;3.58;;;16.70;99.90;;;;;;4971591;28;20588;-87
2022/07/15 06:20:40;;;;;;;7.43;3.28;;;16.70;99.90;;;;;;4988629;28;20457;-87
2022/07/15 06:23:05;;;;;;;7.45;3.22;;;16.80;99.90;;;;;;4972574;28;20470;-89
2022/07/15 06:25:31;;;;;;;12.05;3.50;;;16.90;99.90;;;;;;4973683;28;20484;-88
2022/07/15 06:27:57;;;;;;;8.30;3.30;;;16.90;99.90;;;;;;4988500;28;20027;-87
2022/07/15 06:30:23;;;;;;;11.55;2.88;;;17.00;99.90;;;;;;4974317;28;20026;-87
2022/07/15 06:32:48;;;;;;;7.38;3.00;;;17.10;99.90;;;;;;4973686;28;20035;-88
2022/07/15 06:35:14;;;;;;;9.13;3.50;;;17.20;99.90;;;;;;4973525;28;20023;-88
2022/07/15 06:37:40;;;;;;;7.95;3.00;;;17.30;99.90;;;;;;4973351;28;20582;-87
2022/07/15 06:40:07;;;;;;;6.10;2.70;;;17.40;99.90;;;;;;4973456;28;20023;-89
2022/07/15 06:42:32;;;;;;;8.00;3.08;;;17.50;99.90;;;;;;4973232;28;20035;-88
2022/07/15 06:44:58;;;;;;;9.82;2.78;;;17.50;99.90;;;;;;4973424;28;20430;-88
2022/07/15 06:47:24;;;;;;;6.20;2.65;;;17.60;99.90;;;;;;4974038;28;20030;-87
2022/07/15 06:49:50;;;;;;;8.20;2.85;;;17.70;99.90;;;;;;4973201;28;20021;-88
2022/07/15 06:52:16;;;;;;;6.35;2.65;;;17.80;99.90;;;;;;4973258;28;20259;-89
2022/07/15 06:54:42;;;;;;;5.82;2.50;;;17.80;99.90;;;;;;4973221;28;20055;-88
2022/07/15 06:57:08;;;;;;;7.65;2.80;;;17.90;99.90;;;;;;4973122;28;20054;-88
2022/07/15 06:59:34;;;;;;;4.22;2.58;;;18.00;99.90;;;;;;4973160;28;20038;-88
2022/07/15 07:02:01;;;;;;;5.93;2.40;;;18.00;99.90;;;;;;4973089;28;20031;-88
2022/07/15 07:04:27;;;;;;;8.02;2.75;;;18.10;99.90;;;;;;4973941;28;20026;-87
2022/07/15 07:06:52;;;;;;;6.25;2.42;;;18.20;99.90;;;;;;4973840;28;20023;-87
2022/07/15 07:09:18;;;;;;;6.95;2.55;;;18.20;99.90;;;;;;4972916;28;20372;-88
2022/07/15 07:11:44;;;;;;;6.43;2.83;;;18.20;99.90;;;;;;4972812;28;20035;-87
2022/07/15 07:14:12;;;;;;;7.07;2.80;;;18.30;99.90;;;;;;4973046;28;20054;-87
2022/07/15 07:16:37;;;;;;;11.23;2.90;;;18.40;99.90;;;;;;4972690;28;20086;-89
2022/07/15 07:19:03;;;;;;;6.32;2.42;;;18.40;99.90;;;;;;4972808;28;20031;-89
2022/07/15 07:21:29;;;;;;;5.72;2.40;;;18.60;99.90;;;;;;4972824;28;20038;-87
2022/07/15 07:23:55;;;;;;;8.32;2.83;;;18.70;99.90;;;;;;4973613;28;20027;-87
2022/07/15 07:26:20;;;;;;;7.93;2.70;;;18.80;99.90;;;;;;4972491;28;20447;-87
2022/07/15 07:28:48;;;;;;;6.50;2.63;;;18.90;99.90;;;;;;4972516;28;20023;-88
2022/07/15 07:31:14;;;;;;;3.90;2.20;;;19.00;99.90;;;;;;4987716;28;20031;-90
2022/07/15 07:33:40;;;;;;;9.88;2.67;;;19.10;99.90;;;;;;4972626;28;20506;-88
2022/07/15 07:36:07;;;;;;;6.55;2.55;;;19.20;99.90;;;;;;4971291;28;20183;-90
2022/07/15 07:38:34;;;;;;;6.60;2.42;;;19.30;99.90;;;;;;4972887;28;20038;-89
2022/07/15 07:41:01;;;;;;;4.80;2.30;;;19.40;99.90;;;;;;4972672;28;20081;-87
2022/07/15 07:43:27;;;;;;;8.33;2.40;;;19.40;99.90;;;;;;4972100;28;20544;-87
2022/07/15 07:45:53;;;;;;;9.05;2.80;;;19.50;99.90;;;;;;4972472;28;20845;-87
2022/07/15 07:48:20;;;;;;;5.97;2.42;;;19.50;99.90;;;;;;4972616;28;20391;-89
2022/07/15 07:50:47;;;;;;;7.47;2.70;;;19.50;99.90;;;;;;4972451;28;20034;-87
2022/07/15 07:53:13;;;;;;;5.53;2.10;;;19.60;99.90;;;;;;4972348;28;20019;-89
2022/07/15 07:55:39;;;;;;;6.78;2.28;;;19.70;99.90;;;;;;4987407;28;20054;-89
2022/07/15 07:58:05;;;;;;;12.30;2.95;;;19.80;99.90;;;;;;4971122;28;20031;-88
2022/07/15 08:00:32;;;;;;;7.15;2.40;;;19.90;99.90;;;;;;4972105;28;20077;-87
2022/07/15 08:02:59;;;;;;;7.28;2.20;;;20.00;99.90;;;;;;4972889;28;20066;-90
2022/07/15 08:05:26;;;;;;;8.90;2.20;;;20.00;99.90;;;;;;4972142;28;20015;-89
2022/07/15 08:08:10;;;;;;;4.17;2.27;;;20.00;99.90;;;;;;4986851;28;20321;-87
2022/07/15 08:10:36;;;;;;;7.45;2.45;;;20.20;99.90;;;;;;4972074;28;20415;-90
2022/07/15 08:13:02;;;;;;;6.07;2.50;;;20.30;99.90;;;;;;4972311;28;20058;-88
2022/07/15 08:15:28;;;;;;;8.15;2.55;;;20.50;99.90;;;;;;4973043;28;20023;-88
2022/07/15 08:17:54;;;;;;;7.40;2.42;;;20.60;99.90;;;;;;4986954;28;20403;-88
2022/07/15 08:20:20;;;;;;;6.07;2.65;;;20.70;99.90;;;;;;4971655;28;20368;-89
2022/07/15 08:22:45;;;;;;;6.78;2.28;;;20.80;99.90;;;;;;4971596;28;20060;-88
2022/07/15 08:25:11;;;;;;;8.05;2.20;;;20.70;99.90;;;;;;4972193;28;20033;-89
2022/07/15 08:27:37;;;;;;;9.02;2.58;;;20.70;99.30;;;;;;4978221;28;20081;-88
2022/07/15 08:30:03;;;;;;;6.90;2.50;;;20.90;98.90;;;;;;4987626;28;20027;-90
2022/07/15 08:32:29;;;;;;;7.68;2.10;;;21.10;99.90;;;;;;4987974;28;20098;-87
2022/07/15 08:34:55;;;;;;;4.80;2.00;;;21.10;99.90;;;;;;4986473;28;20395;-88
2022/07/15 08:37:21;;;;;;;6.50;2.40;;;21.30;99.90;;;;;;4971759;28;20035;-88
2022/07/15 08:39:49;;;;;;;5.57;2.10;;;21.60;99.90;;;;;;4971628;28;20114;-88
2022/07/15 08:42:14;;;;;;;5.05;2.10;;;21.70;99.70;;;;;;4971517;28;20113;-89
2022/07/15 08:44:40;;;;;;;6.30;2.22;;;21.60;94.70;;;;;;4971542;28;20106;-90
2022/07/15 08:47:06;;;;;;;5.25;1.88;;;21.80;96.40;;;;;;4971434;28;20027;-90
2022/07/15 08:49:34;;;;;;;5.38;1.90;;;21.80;86.70;;;;;;4970903;28;20031;-88
2022/07/15 08:52:00;;;;;;;4.47;1.73;;;21.90;94.30;;;;;;4970774;28;20106;-90
2022/07/15 08:54:27;;;;;;;3.10;1.80;;;22.00;86.00;;;;;;4971113;28;20027;-89
2022/07/15 08:56:53;;;;;;;6.25;2.25;;;22.00;94.10;;;;;;4971316;28;20648;-90
2022/07/15 08:59:19;;;;;;;5.60;2.08;;;22.10;89.10;;;;;;4986207;28;20492;-89
2022/07/15 09:01:46;;;;;;;4.72;1.90;;;22.30;85.50;;;;;;4971133;28;20042;-88
2022/07/15 09:04:13;;;;;;;3.72;2.20;;;22.20;89.20;;;;;;4970038;28;20465;-90
2022/07/15 09:06:44;;;;;;;3.90;2.08;;;22.20;85.60;;;;;;4969859;28;20027;-90
2022/07/15 09:09:29;;;;;;;5.47;2.30;;;22.30;73.30;;;;;;4969937;28;20415;-90
2022/07/15 09:12:02;;;;;;;6.88;2.22;;;22.30;65.40;;;;;;4971092;28;20069;-89
2022/07/15 09:14:29;;;;;;;7.32;2.20;;;22.30;78.10;;;;;;4971043;28;20027;-87
2022/07/15 09:17:06;;;;;;;4.43;1.85;;;22.40;71.20;;;;;;4970829;28;20053;-88
2022/07/15 09:20:08;;;;;;;9.20;2.25;;;22.40;77.50;;;;;;4971603;28;20026;-91
2022/07/15 09:22:56;;;;;;;4.43;2.00;;;22.50;70.40;;;;;;4971432;28;20065;-88
2022/07/15 09:25:22;;;;;;;7.18;2.20;;;22.50;66.30;;;;;;4970669;28;20093;-88
2022/07/15 09:27:49;;;;;;;8.85;2.40;;;22.50;62.70;;;;;;4970764;28;20449;-88
2022/07/15 09:36:04;;;;;;;5.20;2.40;;;22.80;64.40;;;;;;4970957;28;20045;-90
2022/07/15 09:38:41;;;;;;;3.08;2.10;;;22.70;59.90;;;;;;4970496;28;20085;-88
2022/07/15 09:41:25;;;;;;;7.13;2.38;;;22.90;59.20;;;;;;4985387;28;20037;-89
2022/07/15 09:44:06;;;;;;;4.05;2.00;;;23.00;57.50;;;;;;4970799;28;20027;-90
2022/07/15 09:46:49;;;;;;;7.57;1.92;;;22.80;62.90;;;;;;4970254;28;20082;-89
2022/07/15 09:49:31;;;;;;;5.03;2.35;;;23.00;61.10;;;;;;4970711;28;20023;-88
2022/07/15 09:52:03;;;;;;;7.65;2.20;;;22.90;59.20;;;;;;4970300;28;20243;-90
2022/07/15 09:54:33;;;;;;;5.60;2.20;;;23.00;63.00;;;;;;4974629;28;20034;-89
2022/07/15 09:57:01;;;;;;;5.95;2.20;;;23.00;58.70;;;;;;4974283;28;20031;-88
2022/07/15 09:59:29;;;;;;;8.45;2.20;;;23.20;54.60;;;;;;4974312;28;20820;-88
2022/07/15 10:01:55;;;;;;;5.95;2.30;;;23.30;58.80;;;;;;4974162;28;20098;-89
2022/07/15 10:04:23;;;;;;;5.65;2.25;;;23.30;55.80;;;;;;4974513;28;20058;-87
2022/07/15 10:06:50;;;;;;;4.47;2.50;;;23.50;53.00;;;;;;4974152;28;20475;-89
2022/07/15 10:09:23;;;;;;;4.30;2.15;;;23.40;50.90;;;;;;4972900;28;20050;-89
2022/07/15 10:11:52;;;;;;;5.85;2.20;;;23.50;52.70;;;;;;4972729;28;20041;-88
2022/07/15 10:14:45;;;;;;;9.50;2.47;;;23.60;61.40;;;;;;4974327;28;20434;-91
2022/07/15 10:17:21;;;;;;;4.60;2.45;;;23.80;52.50;;;;;;4974378;28;20031;-89
2022/07/15 10:20:13;;;;;;;4.20;2.30;;;23.90;61.00;;;;;;4974424;28;20019;-89
2022/07/15 10:22:42;;;;;;;4.35;2.30;;;24.10;62.00;;;;;;4989274;28;20045;-88
2022/07/15 10:25:53;;;;;;;9.75;2.60;;;24.20;61.20;;;;;;4989777;28;20037;-89
2022/07/15 10:28:52;;;;;;;4.82;2.30;;;23.90;50.60;;;;;;4973843;28;20026;-88
2022/07/15 10:31:23;;;;;;;4.68;2.30;;;23.80;52.90;;;;;;4973833;28;20058;-89
2022/07/15 10:34:04;;;;;;;7.30;3.08;;;23.90;52.00;;;;;;4972443;28;20051;-89
2022/07/15 10:36:52;;;;;;;5.95;2.47;;;23.90;51.40;;;;;;4973386;28;20034;-90
2022/07/15 10:39:20;;;;;;;4.72;2.50;;;23.90;50.30;;;;;;4988636;28;20476;-89
2022/07/15 10:42:02;;;;;;;;;;;23.80;49.10;;;;;;4989385;28;20035;-88
2022/07/15 10:44:34;;;;;;;6.28;2.25;;;24.00;52.40;;;;;;4988641;28;20000;-92
2022/07/15 10:47:12;;;;;;;9.13;2.70;;;24.10;52.40;;;;;;4973803;28;20329;-88
2022/07/15 10:49:38;;;;;;;6.82;2.40;;;24.20;50.80;;;;;;4974177;28;20022;-89
2022/07/15 10:52:30;;;;;;;5.03;2.28;;;24.20;49.50;;;;;;4973535;28;20106;-88
2022/07/15 10:54:55;;;;;;;5.85;2.80;;;24.20;49.20;;;;;;4973515;28;20065;-88
2022/07/15 10:57:41;;;;;;;4.93;2.53;;;24.20;44.90;;;;;;4988228;28;20046;-89
2022/07/15 11:00:32;;;;;;;5.20;2.30;;;24.20;46.70;;;;;;4972837;28;20069;-90
2022/07/15 11:03:19;;;;;;;5.13;2.45;;;24.30;45.70;;;;;;4964863;28;20458;-89
2022/07/15 11:05:46;;;;;;;9.10;2.97;;;24.20;47.90;;;;;;4971701;28;20109;-88
2022/07/15 11:08:33;;;;;;;3.95;2.33;;;24.10;45.30;;;;;;4988331;28;20447;-88
2022/07/15 11:11:14;;;;;;;6.75;2.20;;;24.30;46.10;;;;;;4975061;28;20035;-88
2022/07/15 11:13:45;;;;;;;8.25;2.60;;;24.20;45.20;;;;;;4992641;28;20042;-88
2022/07/15 11:16:12;;;;;;;6.53;2.58;;;24.20;45.50;;;;;;4989020;28;20062;-89
2022/07/15 11:18:49;;;;;;;4.80;2.33;;;24.40;49.60;;;;;;4989656;28;20399;-90
2022/07/15 11:21:15;;;;;;;3.97;2.35;;;24.70;49.70;;;;;;4971620;28;20026;-90
2022/07/15 11:23:46;;;;;;;7.47;2.38;;;24.90;50.70;;;;;;4971716;28;20062;-90
2022/07/15 11:26:12;;;;;;;5.53;2.55;;;25.00;50.20;;;;;;4971572;28;20027;-89
2022/07/15 11:28:47;;;;;;;3.40;2.42;;;25.10;49.50;;;;;;4973703;28;20364;-91
2022/07/15 11:31:13;;;;;;;6.97;2.75;;;25.30;50.30;;;;;;4972015;28;20093;-90
2022/07/15 11:33:39;;;;;;;7.55;2.40;;;25.40;50.70;;;;;;4973340;28;20101;-88
2022/07/15 11:36:05;;;;;;;5.53;2.38;;;24.90;41.50;;;;;;4971521;28;20034;-89
2022/07/15 11:38:38;;;;;;;5.57;2.50;;;25.00;42.30;;;;;;4987807;28;20402;-89
2022/07/15 11:46:49;;;;;;;5.90;2.40;;;24.70;48.40;;;;;;4972631;28;20038;-88
2022/07/15 11:49:35;;;;;;;5.13;2.65;;;24.70;46.50;;;;;;4972365;28;20023;-88
2022/07/15 11:52:03;;;;;;;4.93;2.47;;;24.80;47.80;;;;;;4972559;28;20483;-89
2022/07/15 11:54:30;;;;;;;7.97;2.42;;;25.00;48.70;;;;;;4971199;28;20023;-89
2022/07/15 11:57:00;;;;;;;4.07;2.40;;;25.20;47.60;;;;;;4970978;28;20031;-92
2022/07/15 11:59:27;;;;;;;9.57;2.92;;;25.20;47.60;;;;;;4972305;28;20080;-90
2022/07/15 12:02:07;;;;;;;5.75;2.63;;;25.30;45.70;;;;;;4971186;28;20499;-90
2022/07/15 12:04:34;;;;;;;5.55;2.58;;;25.10;45.10;;;;;;4971064;28;20307;-88
2022/07/15 12:07:00;;;;;;;3.13;2.45;;;25.30;48.10;;;;;;4972389;28;20031;-90
2022/07/15 12:09:27;;;;;;;5.57;2.90;;;25.40;46.60;;;;;;4972209;28;20015;-89
2022/07/15 12:11:52;;;;;;;4.18;2.20;;;25.30;43.80;;;;;;4972108;28;20086;-89
2022/07/15 12:14:25;;;;;;;6.22;2.58;;;25.20;45.50;;;;;;4971480;28;20105;-91
2022/07/15 12:16:54;;;;;;;5.35;2.60;;;25.00;43.40;;;;;;4970611;28;20399;-90
2022/07/15 12:19:28;;;;;;;6.10;2.28;;;24.90;44.00;;;;;;4987029;28;20070;-91
2022/07/15 12:21:56;;;;;;;5.65;2.70;;;25.20;44.40;;;;;;4971771;28;20039;-89
2022/07/15 12:24:24;;;;;;;6.53;2.47;;;25.30;41.50;;;;;;4971606;28;20019;-90
2022/07/15 12:26:50;;;;;;;4.93;2.35;;;25.40;43.20;;;;;;4971731;28;20033;-88
2022/07/15 12:29:18;;;;;;;5.43;2.42;;;25.10;40.20;;;;;;4986702;28;20027;-90
2022/07/15 12:31:55;;;;;;;3.78;2.40;;;24.90;40.90;;;;;;4971056;28;20026;-88
2022/07/15 12:34:23;;;;;;;7.72;2.58;;;25.00;42.80;;;;;;4971640;28;20022;-88
2022/07/15 12:36:58;;;;;;;;;;;25.20;39.10;;;;;;4971735;28;20495;-87
2022/07/15 12:39:25;;;;;;;3.85;2.38;;;25.20;39.50;;;;;;4971658;28;19965;-89
2022/07/15 12:42:04;;;;;;;4.88;2.42;;;25.30;42.40;;;;;;4970392;28;20039;-89
2022/07/15 12:44:31;;;;;;;6.05;2.58;;;25.30;41.20;;;;;;4986571;28;20037;-91
2022/07/15 12:47:04;;;;;;;9.43;2.60;;;25.30;40.90;;;;;;4971534;28;20025;-89
2022/07/15 12:49:50;;;;;;;4.40;2.22;;;25.30;38.70;;;;;;4971410;28;20037;-91
2022/07/15 12:52:29;;;;;;;5.35;2.38;;;25.40;39.00;;;;;;4971840;28;20023;-90
2022/07/15 12:54:55;;;;;;;6.82;2.50;;;25.40;39.90;;;;;;4986189;28;20034;-89
2022/07/15 12:57:31;;;;;;;5.05;2.25;;;25.50;38.90;;;;;;4971190;28;20484;-89
2022/07/15 13:00:00;;;;;;;4.72;2.60;;;25.50;37.60;;;;;;4971435;28;20049;-91
2022/07/15 13:02:27;;;;;;;6.82;2.33;;;25.60;36.60;;;;;;4971207;28;20050;-88
2022/07/15 13:04:53;;;;;;;4.37;2.30;;;25.60;38.60;;;;;;4971273;28;20022;-88